<?xml version="1.0" encoding="UTF-8" standalone="no" ?>
<gpx xmlns="http://www.topografix.com/GPX/1/1" xmlns:xsi="http://www.w3.org/2001/XMLSchema-instance" xsi:schemaLocation="http://www.topografix.com/GPX/1/1 http://www.topografix.com/GPX/1/1/gpx.xsd" version="1.1" creator="VisuGPX - https://www.visugpx.com">
  <metadata>
    <name>Saint Ju 18km</name>
  </metadata>
  <trk>
    <name><![CDATA[Trail Pei-17974646]]></name>
    <trkseg>
      <trkpt lat="46.0276" lon="4.65312">
        <ele>252</ele>
        <time>2023-11-20T09:57:40Z</time>
      </trkpt>
      <trkpt lat="46.02776" lon="4.65333">
        <ele>253</ele>
        <time>2023-11-20T09:57:51Z</time>
      </trkpt>
      <trkpt lat="46.02831" lon="4.6539">
        <ele>256</ele>
        <time>2023-11-20T09:58:25Z</time>
      </trkpt>
      <trkpt lat="46.0286" lon="4.65429">
        <ele>257</ele>
        <time>2023-11-20T09:58:45Z</time>
      </trkpt>
      <trkpt lat="46.0288" lon="4.65439">
        <ele>258</ele>
        <time>2023-11-20T09:58:55Z</time>
      </trkpt>
      <trkpt lat="46.02884" lon="4.65438">
        <ele>258</ele>
        <time>2023-11-20T09:58:57Z</time>
      </trkpt>
      <trkpt lat="46.02887" lon="4.65432">
        <ele>259</ele>
        <time>2023-11-20T09:59:00Z</time>
      </trkpt>
      <trkpt lat="46.02862" lon="4.65336">
        <ele>262</ele>
        <time>2023-11-20T09:59:35Z</time>
      </trkpt>
      <trkpt lat="46.02828" lon="4.65135">
        <ele>270</ele>
        <time>2023-11-20T10:00:47Z</time>
      </trkpt>
      <trkpt lat="46.02819" lon="4.65096">
        <ele>272</ele>
        <time>2023-11-20T10:01:02Z</time>
      </trkpt>
      <trkpt lat="46.02822" lon="4.65077">
        <ele>273</ele>
        <time>2023-11-20T10:01:08Z</time>
      </trkpt>
      <trkpt lat="46.02719" lon="4.64977">
        <ele>266</ele>
        <time>2023-11-20T10:02:11Z</time>
      </trkpt>
      <trkpt lat="46.02684" lon="4.64936">
        <ele>266</ele>
        <time>2023-11-20T10:02:33Z</time>
      </trkpt>
      <trkpt lat="46.02634" lon="4.64893">
        <ele>263</ele>
        <time>2023-11-20T10:03:02Z</time>
      </trkpt>
      <trkpt lat="46.02613" lon="4.64856">
        <ele>261</ele>
        <time>2023-11-20T10:03:19Z</time>
      </trkpt>
      <trkpt lat="46.02577" lon="4.64759">
        <ele>260</ele>
        <time>2023-11-20T10:03:57Z</time>
      </trkpt>
      <trkpt lat="46.0255" lon="4.64619">
        <ele>266</ele>
        <time>2023-11-20T10:04:48Z</time>
      </trkpt>
      <trkpt lat="46.02554" lon="4.64612">
        <ele>267</ele>
        <time>2023-11-20T10:04:51Z</time>
      </trkpt>
      <trkpt lat="46.02618" lon="4.64597">
        <ele>278</ele>
        <time>2023-11-20T10:05:23Z</time>
      </trkpt>
      <trkpt lat="46.02631" lon="4.64592">
        <ele>281</ele>
        <time>2023-11-20T10:05:30Z</time>
      </trkpt>
      <trkpt lat="46.02635" lon="4.64586">
        <ele>282</ele>
        <time>2023-11-20T10:05:33Z</time>
      </trkpt>
      <trkpt lat="46.02619" lon="4.64496">
        <ele>283</ele>
        <time>2023-11-20T10:06:05Z</time>
      </trkpt>
      <trkpt lat="46.02606" lon="4.64367">
        <ele>283</ele>
        <time>2023-11-20T10:06:50Z</time>
      </trkpt>
      <trkpt lat="46.02597" lon="4.64349">
        <ele>282</ele>
        <time>2023-11-20T10:06:58Z</time>
      </trkpt>
      <trkpt lat="46.02565" lon="4.64337">
        <ele>277</ele>
        <time>2023-11-20T10:07:15Z</time>
      </trkpt>
      <trkpt lat="46.0254" lon="4.64337">
        <ele>274</ele>
        <time>2023-11-20T10:07:27Z</time>
      </trkpt>
      <trkpt lat="46.02525" lon="4.64333">
        <ele>272</ele>
        <time>2023-11-20T10:07:35Z</time>
      </trkpt>
      <trkpt lat="46.02497" lon="4.64317">
        <ele>269</ele>
        <time>2023-11-20T10:07:50Z</time>
      </trkpt>
      <trkpt lat="46.02485" lon="4.64304">
        <ele>268</ele>
        <time>2023-11-20T10:07:57Z</time>
      </trkpt>
      <trkpt lat="46.02458" lon="4.64222">
        <ele>268</ele>
        <time>2023-11-20T10:08:29Z</time>
      </trkpt>
      <trkpt lat="46.02417" lon="4.6417">
        <ele>268</ele>
        <time>2023-11-20T10:08:56Z</time>
      </trkpt>
      <trkpt lat="46.02412" lon="4.64159">
        <ele>268</ele>
        <time>2023-11-20T10:09:01Z</time>
      </trkpt>
      <trkpt lat="46.02425" lon="4.6409">
        <ele>274</ele>
        <time>2023-11-20T10:09:26Z</time>
      </trkpt>
      <trkpt lat="46.02422" lon="4.64051">
        <ele>278</ele>
        <time>2023-11-20T10:09:39Z</time>
      </trkpt>
      <trkpt lat="46.02414" lon="4.64013">
        <ele>280</ele>
        <time>2023-11-20T10:09:53Z</time>
      </trkpt>
      <trkpt lat="46.02404" lon="4.63907">
        <ele>290</ele>
        <time>2023-11-20T10:10:30Z</time>
      </trkpt>
      <trkpt lat="46.02408" lon="4.639">
        <ele>291</ele>
        <time>2023-11-20T10:10:33Z</time>
      </trkpt>
      <trkpt lat="46.02406" lon="4.63886">
        <ele>293</ele>
        <time>2023-11-20T10:10:38Z</time>
      </trkpt>
      <trkpt lat="46.02413" lon="4.63841">
        <ele>301</ele>
        <time>2023-11-20T10:10:54Z</time>
      </trkpt>
      <trkpt lat="46.02409" lon="4.638">
        <ele>303</ele>
        <time>2023-11-20T10:11:09Z</time>
      </trkpt>
      <trkpt lat="46.02439" lon="4.63635">
        <ele>316</ele>
        <time>2023-11-20T10:12:08Z</time>
      </trkpt>
      <trkpt lat="46.02453" lon="4.63536">
        <ele>324</ele>
        <time>2023-11-20T10:12:43Z</time>
      </trkpt>
      <trkpt lat="46.02472" lon="4.6345">
        <ele>330</ele>
        <time>2023-11-20T10:13:14Z</time>
      </trkpt>
      <trkpt lat="46.02497" lon="4.63382">
        <ele>336</ele>
        <time>2023-11-20T10:13:41Z</time>
      </trkpt>
      <trkpt lat="46.02535" lon="4.63311">
        <ele>337</ele>
        <time>2023-11-20T10:14:12Z</time>
      </trkpt>
      <trkpt lat="46.02554" lon="4.63188">
        <ele>340</ele>
        <time>2023-11-20T10:14:56Z</time>
      </trkpt>
      <trkpt lat="46.0256" lon="4.63115">
        <ele>342</ele>
        <time>2023-11-20T10:15:22Z</time>
      </trkpt>
      <trkpt lat="46.02557" lon="4.63097">
        <ele>342</ele>
        <time>2023-11-20T10:15:28Z</time>
      </trkpt>
      <trkpt lat="46.0255" lon="4.63093">
        <ele>340</ele>
        <time>2023-11-20T10:15:32Z</time>
      </trkpt>
      <trkpt lat="46.02538" lon="4.63091">
        <ele>338</ele>
        <time>2023-11-20T10:15:38Z</time>
      </trkpt>
      <trkpt lat="46.02518" lon="4.63095">
        <ele>333</ele>
        <time>2023-11-20T10:15:48Z</time>
      </trkpt>
      <trkpt lat="46.02511" lon="4.63102">
        <ele>332</ele>
        <time>2023-11-20T10:15:52Z</time>
      </trkpt>
      <trkpt lat="46.025" lon="4.63121">
        <ele>330</ele>
        <time>2023-11-20T10:16:01Z</time>
      </trkpt>
      <trkpt lat="46.02496" lon="4.63113">
        <ele>329</ele>
        <time>2023-11-20T10:16:04Z</time>
      </trkpt>
      <trkpt lat="46.02493" lon="4.63014">
        <ele>326</ele>
        <time>2023-11-20T10:16:39Z</time>
      </trkpt>
      <trkpt lat="46.02487" lon="4.62979">
        <ele>324</ele>
        <time>2023-11-20T10:16:51Z</time>
      </trkpt>
      <trkpt lat="46.02484" lon="4.62933">
        <ele>324</ele>
        <time>2023-11-20T10:17:07Z</time>
      </trkpt>
      <trkpt lat="46.02476" lon="4.62886">
        <ele>321</ele>
        <time>2023-11-20T10:17:24Z</time>
      </trkpt>
      <trkpt lat="46.02481" lon="4.62819">
        <ele>323</ele>
        <time>2023-11-20T10:17:48Z</time>
      </trkpt>
      <trkpt lat="46.02505" lon="4.62705">
        <ele>323</ele>
        <time>2023-11-20T10:18:29Z</time>
      </trkpt>
      <trkpt lat="46.02509" lon="4.62704">
        <ele>324</ele>
        <time>2023-11-20T10:18:31Z</time>
      </trkpt>
      <trkpt lat="46.02523" lon="4.62712">
        <ele>330</ele>
        <time>2023-11-20T10:18:39Z</time>
      </trkpt>
      <trkpt lat="46.02548" lon="4.62717">
        <ele>341</ele>
        <time>2023-11-20T10:18:51Z</time>
      </trkpt>
      <trkpt lat="46.02558" lon="4.62715">
        <ele>345</ele>
        <time>2023-11-20T10:18:56Z</time>
      </trkpt>
      <trkpt lat="46.02619" lon="4.62718">
        <ele>364</ele>
        <time>2023-11-20T10:19:27Z</time>
      </trkpt>
      <trkpt lat="46.02663" lon="4.62651">
        <ele>373</ele>
        <time>2023-11-20T10:19:59Z</time>
      </trkpt>
      <trkpt lat="46.02669" lon="4.62648">
        <ele>374</ele>
        <time>2023-11-20T10:20:02Z</time>
      </trkpt>
      <trkpt lat="46.027" lon="4.62655">
        <ele>379</ele>
        <time>2023-11-20T10:20:18Z</time>
      </trkpt>
      <trkpt lat="46.02716" lon="4.62667">
        <ele>383</ele>
        <time>2023-11-20T10:20:27Z</time>
      </trkpt>
      <trkpt lat="46.02752" lon="4.62679">
        <ele>386</ele>
        <time>2023-11-20T10:20:45Z</time>
      </trkpt>
      <trkpt lat="46.0278" lon="4.6267">
        <ele>385</ele>
        <time>2023-11-20T10:21:00Z</time>
      </trkpt>
      <trkpt lat="46.0279" lon="4.62665">
        <ele>385</ele>
        <time>2023-11-20T10:21:05Z</time>
      </trkpt>
      <trkpt lat="46.02793" lon="4.62661">
        <ele>384</ele>
        <time>2023-11-20T10:21:07Z</time>
      </trkpt>
      <trkpt lat="46.02794" lon="4.6265">
        <ele>383</ele>
        <time>2023-11-20T10:21:11Z</time>
      </trkpt>
      <trkpt lat="46.02789" lon="4.62607">
        <ele>381</ele>
        <time>2023-11-20T10:21:26Z</time>
      </trkpt>
      <trkpt lat="46.02792" lon="4.62592">
        <ele>380</ele>
        <time>2023-11-20T10:21:31Z</time>
      </trkpt>
      <trkpt lat="46.02797" lon="4.62582">
        <ele>380</ele>
        <time>2023-11-20T10:21:36Z</time>
      </trkpt>
      <trkpt lat="46.028" lon="4.62581">
        <ele>380</ele>
        <time>2023-11-20T10:21:37Z</time>
      </trkpt>
      <trkpt lat="46.02827" lon="4.62589">
        <ele>381</ele>
        <time>2023-11-20T10:21:51Z</time>
      </trkpt>
      <trkpt lat="46.0284" lon="4.62598">
        <ele>381</ele>
        <time>2023-11-20T10:21:58Z</time>
      </trkpt>
      <trkpt lat="46.02894" lon="4.62592">
        <ele>382</ele>
        <time>2023-11-20T10:22:25Z</time>
      </trkpt>
      <trkpt lat="46.02926" lon="4.62609">
        <ele>381</ele>
        <time>2023-11-20T10:22:42Z</time>
      </trkpt>
      <trkpt lat="46.02949" lon="4.626">
        <ele>383</ele>
        <time>2023-11-20T10:22:54Z</time>
      </trkpt>
      <trkpt lat="46.0298" lon="4.62571">
        <ele>388</ele>
        <time>2023-11-20T10:23:13Z</time>
      </trkpt>
      <trkpt lat="46.02989" lon="4.62557">
        <ele>390</ele>
        <time>2023-11-20T10:23:19Z</time>
      </trkpt>
      <trkpt lat="46.03001" lon="4.62422">
        <ele>416</ele>
        <time>2023-11-20T10:24:07Z</time>
      </trkpt>
      <trkpt lat="46.03032" lon="4.62424">
        <ele>417</ele>
        <time>2023-11-20T10:24:22Z</time>
      </trkpt>
      <trkpt lat="46.03048" lon="4.62421">
        <ele>417</ele>
        <time>2023-11-20T10:24:30Z</time>
      </trkpt>
      <trkpt lat="46.03066" lon="4.62411">
        <ele>420</ele>
        <time>2023-11-20T10:24:40Z</time>
      </trkpt>
      <trkpt lat="46.03153" lon="4.62333">
        <ele>431</ele>
        <time>2023-11-20T10:25:31Z</time>
      </trkpt>
      <trkpt lat="46.03166" lon="4.62312">
        <ele>431</ele>
        <time>2023-11-20T10:25:41Z</time>
      </trkpt>
      <trkpt lat="46.03176" lon="4.62281">
        <ele>429</ele>
        <time>2023-11-20T10:25:53Z</time>
      </trkpt>
      <trkpt lat="46.03184" lon="4.62234">
        <ele>426</ele>
        <time>2023-11-20T10:26:10Z</time>
      </trkpt>
      <trkpt lat="46.03182" lon="4.62205">
        <ele>424</ele>
        <time>2023-11-20T10:26:20Z</time>
      </trkpt>
      <trkpt lat="46.03172" lon="4.62148">
        <ele>421</ele>
        <time>2023-11-20T10:26:40Z</time>
      </trkpt>
      <trkpt lat="46.03173" lon="4.62129">
        <ele>418</ele>
        <time>2023-11-20T10:26:47Z</time>
      </trkpt>
      <trkpt lat="46.03221" lon="4.6206">
        <ele>402</ele>
        <time>2023-11-20T10:27:21Z</time>
      </trkpt>
      <trkpt lat="46.03228" lon="4.62056">
        <ele>401</ele>
        <time>2023-11-20T10:27:25Z</time>
      </trkpt>
      <trkpt lat="46.03232" lon="4.62067">
        <ele>399</ele>
        <time>2023-11-20T10:27:29Z</time>
      </trkpt>
      <trkpt lat="46.03237" lon="4.62147">
        <ele>406</ele>
        <time>2023-11-20T10:27:57Z</time>
      </trkpt>
      <trkpt lat="46.0324" lon="4.62158">
        <ele>407</ele>
        <time>2023-11-20T10:28:01Z</time>
      </trkpt>
      <trkpt lat="46.03247" lon="4.62166">
        <ele>407</ele>
        <time>2023-11-20T10:28:05Z</time>
      </trkpt>
      <trkpt lat="46.03238" lon="4.62159">
        <ele>408</ele>
        <time>2023-11-20T10:28:10Z</time>
      </trkpt>
      <trkpt lat="46.03236" lon="4.6215">
        <ele>407</ele>
        <time>2023-11-20T10:28:14Z</time>
      </trkpt>
      <trkpt lat="46.03235" lon="4.62109">
        <ele>401</ele>
        <time>2023-11-20T10:28:28Z</time>
      </trkpt>
      <trkpt lat="46.03224" lon="4.62033">
        <ele>403</ele>
        <time>2023-11-20T10:28:55Z</time>
      </trkpt>
      <trkpt lat="46.03219" lon="4.62017">
        <ele>405</ele>
        <time>2023-11-20T10:29:01Z</time>
      </trkpt>
      <trkpt lat="46.03206" lon="4.6201">
        <ele>408</ele>
        <time>2023-11-20T10:29:08Z</time>
      </trkpt>
      <trkpt lat="46.03192" lon="4.6201">
        <ele>410</ele>
        <time>2023-11-20T10:29:15Z</time>
      </trkpt>
      <trkpt lat="46.03179" lon="4.62007">
        <ele>413</ele>
        <time>2023-11-20T10:29:22Z</time>
      </trkpt>
      <trkpt lat="46.03168" lon="4.61999">
        <ele>416</ele>
        <time>2023-11-20T10:29:28Z</time>
      </trkpt>
      <trkpt lat="46.03201" lon="4.6192">
        <ele>421</ele>
        <time>2023-11-20T10:30:00Z</time>
      </trkpt>
      <trkpt lat="46.03208" lon="4.61897">
        <ele>421</ele>
        <time>2023-11-20T10:30:09Z</time>
      </trkpt>
      <trkpt lat="46.03201" lon="4.61892">
        <ele>422</ele>
        <time>2023-11-20T10:30:12Z</time>
      </trkpt>
      <trkpt lat="46.03174" lon="4.61889">
        <ele>429</ele>
        <time>2023-11-20T10:30:26Z</time>
      </trkpt>
      <trkpt lat="46.03134" lon="4.61874">
        <ele>432</ele>
        <time>2023-11-20T10:30:47Z</time>
      </trkpt>
      <trkpt lat="46.03125" lon="4.61864">
        <ele>432</ele>
        <time>2023-11-20T10:30:52Z</time>
      </trkpt>
      <trkpt lat="46.03123" lon="4.61858">
        <ele>432</ele>
        <time>2023-11-20T10:30:55Z</time>
      </trkpt>
      <trkpt lat="46.0311" lon="4.61772">
        <ele>433</ele>
        <time>2023-11-20T10:31:25Z</time>
      </trkpt>
      <trkpt lat="46.03092" lon="4.6169">
        <ele>441</ele>
        <time>2023-11-20T10:31:55Z</time>
      </trkpt>
      <trkpt lat="46.03088" lon="4.61632">
        <ele>449</ele>
        <time>2023-11-20T10:32:15Z</time>
      </trkpt>
      <trkpt lat="46.03081" lon="4.61611">
        <ele>452</ele>
        <time>2023-11-20T10:32:23Z</time>
      </trkpt>
      <trkpt lat="46.03079" lon="4.61536">
        <ele>461</ele>
        <time>2023-11-20T10:32:50Z</time>
      </trkpt>
      <trkpt lat="46.03072" lon="4.61465">
        <ele>465</ele>
        <time>2023-11-20T10:33:14Z</time>
      </trkpt>
      <trkpt lat="46.03071" lon="4.61421">
        <ele>465</ele>
        <time>2023-11-20T10:33:30Z</time>
      </trkpt>
      <trkpt lat="46.03063" lon="4.61382">
        <ele>464</ele>
        <time>2023-11-20T10:33:44Z</time>
      </trkpt>
      <trkpt lat="46.03041" lon="4.61337">
        <ele>461</ele>
        <time>2023-11-20T10:34:03Z</time>
      </trkpt>
      <trkpt lat="46.03043" lon="4.6131">
        <ele>460</ele>
        <time>2023-11-20T10:34:12Z</time>
      </trkpt>
      <trkpt lat="46.03056" lon="4.61262">
        <ele>462</ele>
        <time>2023-11-20T10:34:30Z</time>
      </trkpt>
      <trkpt lat="46.03056" lon="4.61245">
        <ele>462</ele>
        <time>2023-11-20T10:34:36Z</time>
      </trkpt>
      <trkpt lat="46.03044" lon="4.61214">
        <ele>462</ele>
        <time>2023-11-20T10:34:49Z</time>
      </trkpt>
      <trkpt lat="46.03035" lon="4.612">
        <ele>461</ele>
        <time>2023-11-20T10:34:55Z</time>
      </trkpt>
      <trkpt lat="46.03003" lon="4.61169">
        <ele>454</ele>
        <time>2023-11-20T10:35:14Z</time>
      </trkpt>
      <trkpt lat="46.02986" lon="4.61136">
        <ele>457</ele>
        <time>2023-11-20T10:35:29Z</time>
      </trkpt>
      <trkpt lat="46.0296" lon="4.61112">
        <ele>455</ele>
        <time>2023-11-20T10:35:44Z</time>
      </trkpt>
      <trkpt lat="46.0294" lon="4.61105">
        <ele>452</ele>
        <time>2023-11-20T10:35:55Z</time>
      </trkpt>
      <trkpt lat="46.02908" lon="4.61108">
        <ele>443</ele>
        <time>2023-11-20T10:36:11Z</time>
      </trkpt>
      <trkpt lat="46.02877" lon="4.61101">
        <ele>437</ele>
        <time>2023-11-20T10:36:26Z</time>
      </trkpt>
      <trkpt lat="46.02857" lon="4.61091">
        <ele>435</ele>
        <time>2023-11-20T10:36:37Z</time>
      </trkpt>
      <trkpt lat="46.02835" lon="4.61068">
        <ele>433</ele>
        <time>2023-11-20T10:36:50Z</time>
      </trkpt>
      <trkpt lat="46.02819" lon="4.61036">
        <ele>433</ele>
        <time>2023-11-20T10:37:04Z</time>
      </trkpt>
      <trkpt lat="46.02789" lon="4.60945">
        <ele>439</ele>
        <time>2023-11-20T10:37:39Z</time>
      </trkpt>
      <trkpt lat="46.02778" lon="4.60931">
        <ele>440</ele>
        <time>2023-11-20T10:37:47Z</time>
      </trkpt>
      <trkpt lat="46.02744" lon="4.60902">
        <ele>438</ele>
        <time>2023-11-20T10:38:06Z</time>
      </trkpt>
      <trkpt lat="46.02721" lon="4.60866">
        <ele>435</ele>
        <time>2023-11-20T10:38:23Z</time>
      </trkpt>
      <trkpt lat="46.02721" lon="4.60802">
        <ele>442</ele>
        <time>2023-11-20T10:38:46Z</time>
      </trkpt>
      <trkpt lat="46.02728" lon="4.6077">
        <ele>448</ele>
        <time>2023-11-20T10:38:57Z</time>
      </trkpt>
      <trkpt lat="46.02732" lon="4.60661">
        <ele>461</ele>
        <time>2023-11-20T10:39:35Z</time>
      </trkpt>
      <trkpt lat="46.02728" lon="4.60599">
        <ele>467</ele>
        <time>2023-11-20T10:39:57Z</time>
      </trkpt>
      <trkpt lat="46.02719" lon="4.60525">
        <ele>470</ele>
        <time>2023-11-20T10:40:23Z</time>
      </trkpt>
      <trkpt lat="46.02724" lon="4.60491">
        <ele>474</ele>
        <time>2023-11-20T10:40:35Z</time>
      </trkpt>
      <trkpt lat="46.02728" lon="4.60398">
        <ele>475</ele>
        <time>2023-11-20T10:41:07Z</time>
      </trkpt>
      <trkpt lat="46.02741" lon="4.60366">
        <ele>479</ele>
        <time>2023-11-20T10:41:20Z</time>
      </trkpt>
      <trkpt lat="46.02766" lon="4.60325">
        <ele>487</ele>
        <time>2023-11-20T10:41:39Z</time>
      </trkpt>
      <trkpt lat="46.02774" lon="4.60306">
        <ele>490</ele>
        <time>2023-11-20T10:41:47Z</time>
      </trkpt>
      <trkpt lat="46.02776" lon="4.60295">
        <ele>490</ele>
        <time>2023-11-20T10:41:51Z</time>
      </trkpt>
      <trkpt lat="46.02777" lon="4.60245">
        <ele>488</ele>
        <time>2023-11-20T10:42:08Z</time>
      </trkpt>
      <trkpt lat="46.0277" lon="4.60157">
        <ele>488</ele>
        <time>2023-11-20T10:42:39Z</time>
      </trkpt>
      <trkpt lat="46.02771" lon="4.60091">
        <ele>489</ele>
        <time>2023-11-20T10:43:02Z</time>
      </trkpt>
      <trkpt lat="46.02775" lon="4.60069">
        <ele>491</ele>
        <time>2023-11-20T10:43:10Z</time>
      </trkpt>
      <trkpt lat="46.02776" lon="4.60007">
        <ele>491</ele>
        <time>2023-11-20T10:43:31Z</time>
      </trkpt>
      <trkpt lat="46.02794" lon="4.59955">
        <ele>492</ele>
        <time>2023-11-20T10:43:52Z</time>
      </trkpt>
      <trkpt lat="46.02814" lon="4.59937">
        <ele>497</ele>
        <time>2023-11-20T10:44:03Z</time>
      </trkpt>
      <trkpt lat="46.02821" lon="4.59927">
        <ele>497</ele>
        <time>2023-11-20T10:44:08Z</time>
      </trkpt>
      <trkpt lat="46.02842" lon="4.59861">
        <ele>497</ele>
        <time>2023-11-20T10:44:33Z</time>
      </trkpt>
      <trkpt lat="46.02854" lon="4.59805">
        <ele>498</ele>
        <time>2023-11-20T10:44:54Z</time>
      </trkpt>
      <trkpt lat="46.02873" lon="4.59753">
        <ele>501</ele>
        <time>2023-11-20T10:45:14Z</time>
      </trkpt>
      <trkpt lat="46.02899" lon="4.59693">
        <ele>508</ele>
        <time>2023-11-20T10:45:39Z</time>
      </trkpt>
      <trkpt lat="46.02901" lon="4.59648">
        <ele>511</ele>
        <time>2023-11-20T10:45:55Z</time>
      </trkpt>
      <trkpt lat="46.02908" lon="4.59611">
        <ele>514</ele>
        <time>2023-11-20T10:46:08Z</time>
      </trkpt>
      <trkpt lat="46.02909" lon="4.59588">
        <ele>515</ele>
        <time>2023-11-20T10:46:16Z</time>
      </trkpt>
      <trkpt lat="46.02897" lon="4.59575">
        <ele>518</ele>
        <time>2023-11-20T10:46:23Z</time>
      </trkpt>
      <trkpt lat="46.02896" lon="4.5956">
        <ele>520</ele>
        <time>2023-11-20T10:46:29Z</time>
      </trkpt>
      <trkpt lat="46.02869" lon="4.59521">
        <ele>530</ele>
        <time>2023-11-20T10:46:48Z</time>
      </trkpt>
      <trkpt lat="46.02867" lon="4.59504">
        <ele>533</ele>
        <time>2023-11-20T10:46:54Z</time>
      </trkpt>
      <trkpt lat="46.02852" lon="4.59478">
        <ele>541</ele>
        <time>2023-11-20T10:47:05Z</time>
      </trkpt>
      <trkpt lat="46.02848" lon="4.59451">
        <ele>546</ele>
        <time>2023-11-20T10:47:15Z</time>
      </trkpt>
      <trkpt lat="46.02839" lon="4.59437">
        <ele>550</ele>
        <time>2023-11-20T10:47:22Z</time>
      </trkpt>
      <trkpt lat="46.02834" lon="4.59436">
        <ele>552</ele>
        <time>2023-11-20T10:47:24Z</time>
      </trkpt>
      <trkpt lat="46.02835" lon="4.59418">
        <ele>554</ele>
        <time>2023-11-20T10:47:30Z</time>
      </trkpt>
      <trkpt lat="46.02832" lon="4.59408">
        <ele>557</ele>
        <time>2023-11-20T10:47:34Z</time>
      </trkpt>
      <trkpt lat="46.02826" lon="4.59405">
        <ele>559</ele>
        <time>2023-11-20T10:47:37Z</time>
      </trkpt>
      <trkpt lat="46.02818" lon="4.59388">
        <ele>565</ele>
        <time>2023-11-20T10:47:45Z</time>
      </trkpt>
      <trkpt lat="46.0282" lon="4.5938">
        <ele>565</ele>
        <time>2023-11-20T10:47:48Z</time>
      </trkpt>
      <trkpt lat="46.02816" lon="4.5937">
        <ele>568</ele>
        <time>2023-11-20T10:47:52Z</time>
      </trkpt>
      <trkpt lat="46.02817" lon="4.59353">
        <ele>571</ele>
        <time>2023-11-20T10:47:57Z</time>
      </trkpt>
      <trkpt lat="46.02812" lon="4.59343">
        <ele>573</ele>
        <time>2023-11-20T10:48:02Z</time>
      </trkpt>
      <trkpt lat="46.02807" lon="4.59343">
        <ele>574</ele>
        <time>2023-11-20T10:48:04Z</time>
      </trkpt>
      <trkpt lat="46.02806" lon="4.59334">
        <ele>576</ele>
        <time>2023-11-20T10:48:07Z</time>
      </trkpt>
      <trkpt lat="46.02798" lon="4.59326">
        <ele>579</ele>
        <time>2023-11-20T10:48:12Z</time>
      </trkpt>
      <trkpt lat="46.02792" lon="4.59304">
        <ele>584</ele>
        <time>2023-11-20T10:48:21Z</time>
      </trkpt>
      <trkpt lat="46.02784" lon="4.59294">
        <ele>587</ele>
        <time>2023-11-20T10:48:26Z</time>
      </trkpt>
      <trkpt lat="46.02784" lon="4.59282">
        <ele>589</ele>
        <time>2023-11-20T10:48:30Z</time>
      </trkpt>
      <trkpt lat="46.02772" lon="4.59256">
        <ele>594</ele>
        <time>2023-11-20T10:48:41Z</time>
      </trkpt>
      <trkpt lat="46.02771" lon="4.59247">
        <ele>596</ele>
        <time>2023-11-20T10:48:44Z</time>
      </trkpt>
      <trkpt lat="46.02762" lon="4.5924">
        <ele>598</ele>
        <time>2023-11-20T10:48:49Z</time>
      </trkpt>
      <trkpt lat="46.02757" lon="4.59216">
        <ele>603</ele>
        <time>2023-11-20T10:48:58Z</time>
      </trkpt>
      <trkpt lat="46.02745" lon="4.59202">
        <ele>606</ele>
        <time>2023-11-20T10:49:06Z</time>
      </trkpt>
      <trkpt lat="46.02743" lon="4.59195">
        <ele>608</ele>
        <time>2023-11-20T10:49:08Z</time>
      </trkpt>
      <trkpt lat="46.02736" lon="4.5919">
        <ele>610</ele>
        <time>2023-11-20T10:49:12Z</time>
      </trkpt>
      <trkpt lat="46.02735" lon="4.59183">
        <ele>611</ele>
        <time>2023-11-20T10:49:15Z</time>
      </trkpt>
      <trkpt lat="46.02724" lon="4.59184">
        <ele>613</ele>
        <time>2023-11-20T10:49:20Z</time>
      </trkpt>
      <trkpt lat="46.02719" lon="4.59182">
        <ele>614</ele>
        <time>2023-11-20T10:49:23Z</time>
      </trkpt>
      <trkpt lat="46.02762" lon="4.59157">
        <ele>613</ele>
        <time>2023-11-20T10:49:46Z</time>
      </trkpt>
      <trkpt lat="46.02787" lon="4.59154">
        <ele>612</ele>
        <time>2023-11-20T10:49:58Z</time>
      </trkpt>
      <trkpt lat="46.02813" lon="4.59144">
        <ele>612</ele>
        <time>2023-11-20T10:50:12Z</time>
      </trkpt>
      <trkpt lat="46.02831" lon="4.59131">
        <ele>613</ele>
        <time>2023-11-20T10:50:22Z</time>
      </trkpt>
      <trkpt lat="46.0284" lon="4.5912">
        <ele>612</ele>
        <time>2023-11-20T10:50:28Z</time>
      </trkpt>
      <trkpt lat="46.02851" lon="4.59086">
        <ele>613</ele>
        <time>2023-11-20T10:50:41Z</time>
      </trkpt>
      <trkpt lat="46.02851" lon="4.59057">
        <ele>615</ele>
        <time>2023-11-20T10:50:51Z</time>
      </trkpt>
      <trkpt lat="46.02846" lon="4.59046">
        <ele>617</ele>
        <time>2023-11-20T10:50:56Z</time>
      </trkpt>
      <trkpt lat="46.02837" lon="4.5904">
        <ele>619</ele>
        <time>2023-11-20T10:51:01Z</time>
      </trkpt>
      <trkpt lat="46.0283" lon="4.5903">
        <ele>620</ele>
        <time>2023-11-20T10:51:05Z</time>
      </trkpt>
      <trkpt lat="46.02811" lon="4.59031">
        <ele>625</ele>
        <time>2023-11-20T10:51:15Z</time>
      </trkpt>
      <trkpt lat="46.02791" lon="4.59025">
        <ele>630</ele>
        <time>2023-11-20T10:51:25Z</time>
      </trkpt>
      <trkpt lat="46.02793" lon="4.59019">
        <ele>631</ele>
        <time>2023-11-20T10:51:28Z</time>
      </trkpt>
      <trkpt lat="46.02784" lon="4.5901">
        <ele>634</ele>
        <time>2023-11-20T10:51:33Z</time>
      </trkpt>
      <trkpt lat="46.02786" lon="4.5901">
        <ele>634</ele>
        <time>2023-11-20T10:51:34Z</time>
      </trkpt>
      <trkpt lat="46.02781" lon="4.58993">
        <ele>638</ele>
        <time>2023-11-20T10:51:40Z</time>
      </trkpt>
      <trkpt lat="46.02773" lon="4.58985">
        <ele>642</ele>
        <time>2023-11-20T10:51:45Z</time>
      </trkpt>
      <trkpt lat="46.02774" lon="4.58972">
        <ele>645</ele>
        <time>2023-11-20T10:51:50Z</time>
      </trkpt>
      <trkpt lat="46.02771" lon="4.58958">
        <ele>650</ele>
        <time>2023-11-20T10:51:55Z</time>
      </trkpt>
      <trkpt lat="46.02763" lon="4.58944">
        <ele>655</ele>
        <time>2023-11-20T10:52:01Z</time>
      </trkpt>
      <trkpt lat="46.02757" lon="4.58942">
        <ele>657</ele>
        <time>2023-11-20T10:52:04Z</time>
      </trkpt>
      <trkpt lat="46.02753" lon="4.58933">
        <ele>660</ele>
        <time>2023-11-20T10:52:08Z</time>
      </trkpt>
      <trkpt lat="46.02743" lon="4.58925">
        <ele>665</ele>
        <time>2023-11-20T10:52:14Z</time>
      </trkpt>
      <trkpt lat="46.02772" lon="4.58889">
        <ele>668</ele>
        <time>2023-11-20T10:52:33Z</time>
      </trkpt>
      <trkpt lat="46.02787" lon="4.58858">
        <ele>674</ele>
        <time>2023-11-20T10:52:46Z</time>
      </trkpt>
      <trkpt lat="46.02792" lon="4.58854">
        <ele>674</ele>
        <time>2023-11-20T10:52:49Z</time>
      </trkpt>
      <trkpt lat="46.02802" lon="4.58857">
        <ele>671</ele>
        <time>2023-11-20T10:52:54Z</time>
      </trkpt>
      <trkpt lat="46.02844" lon="4.58858">
        <ele>663</ele>
        <time>2023-11-20T10:53:15Z</time>
      </trkpt>
      <trkpt lat="46.02885" lon="4.58852">
        <ele>660</ele>
        <time>2023-11-20T10:53:36Z</time>
      </trkpt>
      <trkpt lat="46.02906" lon="4.58854">
        <ele>656</ele>
        <time>2023-11-20T10:53:46Z</time>
      </trkpt>
      <trkpt lat="46.02928" lon="4.58867">
        <ele>649</ele>
        <time>2023-11-20T10:53:58Z</time>
      </trkpt>
      <trkpt lat="46.02967" lon="4.58874">
        <ele>640</ele>
        <time>2023-11-20T10:54:18Z</time>
      </trkpt>
      <trkpt lat="46.02973" lon="4.58871">
        <ele>640</ele>
        <time>2023-11-20T10:54:21Z</time>
      </trkpt>
      <trkpt lat="46.02983" lon="4.58856">
        <ele>642</ele>
        <time>2023-11-20T10:54:28Z</time>
      </trkpt>
      <trkpt lat="46.02993" lon="4.5883">
        <ele>646</ele>
        <time>2023-11-20T10:54:38Z</time>
      </trkpt>
      <trkpt lat="46.02997" lon="4.58818">
        <ele>649</ele>
        <time>2023-11-20T10:54:43Z</time>
      </trkpt>
      <trkpt lat="46.0299" lon="4.58802">
        <ele>655</ele>
        <time>2023-11-20T10:54:50Z</time>
      </trkpt>
      <trkpt lat="46.02991" lon="4.58793">
        <ele>658</ele>
        <time>2023-11-20T10:54:53Z</time>
      </trkpt>
      <trkpt lat="46.02984" lon="4.58786">
        <ele>661</ele>
        <time>2023-11-20T10:54:57Z</time>
      </trkpt>
      <trkpt lat="46.02966" lon="4.58784">
        <ele>665</ele>
        <time>2023-11-20T10:55:06Z</time>
      </trkpt>
      <trkpt lat="46.02962" lon="4.58778">
        <ele>667</ele>
        <time>2023-11-20T10:55:09Z</time>
      </trkpt>
      <trkpt lat="46.02957" lon="4.58778">
        <ele>668</ele>
        <time>2023-11-20T10:55:12Z</time>
      </trkpt>
      <trkpt lat="46.02954" lon="4.58771">
        <ele>671</ele>
        <time>2023-11-20T10:55:14Z</time>
      </trkpt>
      <trkpt lat="46.02937" lon="4.58757">
        <ele>678</ele>
        <time>2023-11-20T10:55:24Z</time>
      </trkpt>
      <trkpt lat="46.02932" lon="4.58741">
        <ele>683</ele>
        <time>2023-11-20T10:55:30Z</time>
      </trkpt>
      <trkpt lat="46.02938" lon="4.5873">
        <ele>685</ele>
        <time>2023-11-20T10:55:35Z</time>
      </trkpt>
      <trkpt lat="46.0293" lon="4.58716">
        <ele>690</ele>
        <time>2023-11-20T10:55:41Z</time>
      </trkpt>
      <trkpt lat="46.02938" lon="4.58688">
        <ele>697</ele>
        <time>2023-11-20T10:55:52Z</time>
      </trkpt>
      <trkpt lat="46.02932" lon="4.58676">
        <ele>701</ele>
        <time>2023-11-20T10:55:57Z</time>
      </trkpt>
      <trkpt lat="46.02925" lon="4.58674">
        <ele>703</ele>
        <time>2023-11-20T10:56:01Z</time>
      </trkpt>
      <trkpt lat="46.02923" lon="4.58668">
        <ele>705</ele>
        <time>2023-11-20T10:56:03Z</time>
      </trkpt>
      <trkpt lat="46.02929" lon="4.58647">
        <ele>708</ele>
        <time>2023-11-20T10:56:11Z</time>
      </trkpt>
      <trkpt lat="46.02938" lon="4.5864">
        <ele>708</ele>
        <time>2023-11-20T10:56:16Z</time>
      </trkpt>
      <trkpt lat="46.02933" lon="4.58633">
        <ele>710</ele>
        <time>2023-11-20T10:56:19Z</time>
      </trkpt>
      <trkpt lat="46.02934" lon="4.58613">
        <ele>714</ele>
        <time>2023-11-20T10:56:26Z</time>
      </trkpt>
      <trkpt lat="46.02928" lon="4.58586">
        <ele>720</ele>
        <time>2023-11-20T10:56:36Z</time>
      </trkpt>
      <trkpt lat="46.02928" lon="4.58561">
        <ele>721</ele>
        <time>2023-11-20T10:56:45Z</time>
      </trkpt>
      <trkpt lat="46.02916" lon="4.58566">
        <ele>721</ele>
        <time>2023-11-20T10:56:51Z</time>
      </trkpt>
      <trkpt lat="46.02909" lon="4.58572">
        <ele>720</ele>
        <time>2023-11-20T10:56:55Z</time>
      </trkpt>
      <trkpt lat="46.02881" lon="4.58617">
        <ele>716</ele>
        <time>2023-11-20T10:57:16Z</time>
      </trkpt>
      <trkpt lat="46.02859" lon="4.58623">
        <ele>716</ele>
        <time>2023-11-20T10:57:28Z</time>
      </trkpt>
      <trkpt lat="46.028" lon="4.58672">
        <ele>717</ele>
        <time>2023-11-20T10:58:02Z</time>
      </trkpt>
      <trkpt lat="46.02787" lon="4.58672">
        <ele>717</ele>
        <time>2023-11-20T10:58:08Z</time>
      </trkpt>
      <trkpt lat="46.02784" lon="4.58645">
        <ele>715</ele>
        <time>2023-11-20T10:58:18Z</time>
      </trkpt>
      <trkpt lat="46.02777" lon="4.58635">
        <ele>713</ele>
        <time>2023-11-20T10:58:23Z</time>
      </trkpt>
      <trkpt lat="46.02766" lon="4.58636">
        <ele>713</ele>
        <time>2023-11-20T10:58:28Z</time>
      </trkpt>
      <trkpt lat="46.02737" lon="4.5863">
        <ele>711</ele>
        <time>2023-11-20T10:58:43Z</time>
      </trkpt>
      <trkpt lat="46.02718" lon="4.58622">
        <ele>710</ele>
        <time>2023-11-20T10:58:53Z</time>
      </trkpt>
      <trkpt lat="46.02701" lon="4.5862">
        <ele>710</ele>
        <time>2023-11-20T10:59:01Z</time>
      </trkpt>
      <trkpt lat="46.02689" lon="4.58613">
        <ele>709</ele>
        <time>2023-11-20T10:59:08Z</time>
      </trkpt>
      <trkpt lat="46.02649" lon="4.58603">
        <ele>705</ele>
        <time>2023-11-20T10:59:28Z</time>
      </trkpt>
      <trkpt lat="46.02634" lon="4.58603">
        <ele>704</ele>
        <time>2023-11-20T10:59:35Z</time>
      </trkpt>
      <trkpt lat="46.02614" lon="4.58607">
        <ele>702</ele>
        <time>2023-11-20T10:59:46Z</time>
      </trkpt>
      <trkpt lat="46.02576" lon="4.58629">
        <ele>702</ele>
        <time>2023-11-20T11:00:06Z</time>
      </trkpt>
      <trkpt lat="46.02542" lon="4.58638">
        <ele>696</ele>
        <time>2023-11-20T11:00:23Z</time>
      </trkpt>
      <trkpt lat="46.02501" lon="4.58654">
        <ele>690</ele>
        <time>2023-11-20T11:00:45Z</time>
      </trkpt>
      <trkpt lat="46.02484" lon="4.58664">
        <ele>688</ele>
        <time>2023-11-20T11:00:54Z</time>
      </trkpt>
      <trkpt lat="46.02445" lon="4.58697">
        <ele>683</ele>
        <time>2023-11-20T11:01:16Z</time>
      </trkpt>
      <trkpt lat="46.02408" lon="4.58734">
        <ele>678</ele>
        <time>2023-11-20T11:01:39Z</time>
      </trkpt>
      <trkpt lat="46.02395" lon="4.58757">
        <ele>678</ele>
        <time>2023-11-20T11:01:49Z</time>
      </trkpt>
      <trkpt lat="46.02365" lon="4.58793">
        <ele>672</ele>
        <time>2023-11-20T11:02:09Z</time>
      </trkpt>
      <trkpt lat="46.02345" lon="4.58832">
        <ele>670</ele>
        <time>2023-11-20T11:02:26Z</time>
      </trkpt>
      <trkpt lat="46.02311" lon="4.58877">
        <ele>664</ele>
        <time>2023-11-20T11:02:49Z</time>
      </trkpt>
      <trkpt lat="46.02278" lon="4.58935">
        <ele>657</ele>
        <time>2023-11-20T11:03:15Z</time>
      </trkpt>
      <trkpt lat="46.02263" lon="4.58976">
        <ele>655</ele>
        <time>2023-11-20T11:03:31Z</time>
      </trkpt>
      <trkpt lat="46.02243" lon="4.59002">
        <ele>652</ele>
        <time>2023-11-20T11:03:44Z</time>
      </trkpt>
      <trkpt lat="46.02209" lon="4.59035">
        <ele>646</ele>
        <time>2023-11-20T11:04:05Z</time>
      </trkpt>
      <trkpt lat="46.02193" lon="4.59056">
        <ele>645</ele>
        <time>2023-11-20T11:04:16Z</time>
      </trkpt>
      <trkpt lat="46.02166" lon="4.5908">
        <ele>646</ele>
        <time>2023-11-20T11:04:32Z</time>
      </trkpt>
      <trkpt lat="46.02155" lon="4.59096">
        <ele>646</ele>
        <time>2023-11-20T11:04:39Z</time>
      </trkpt>
      <trkpt lat="46.02153" lon="4.59141">
        <ele>648</ele>
        <time>2023-11-20T11:04:55Z</time>
      </trkpt>
      <trkpt lat="46.02156" lon="4.59155">
        <ele>648</ele>
        <time>2023-11-20T11:05:00Z</time>
      </trkpt>
      <trkpt lat="46.02165" lon="4.59164">
        <ele>647</ele>
        <time>2023-11-20T11:05:06Z</time>
      </trkpt>
      <trkpt lat="46.02171" lon="4.59166">
        <ele>646</ele>
        <time>2023-11-20T11:05:09Z</time>
      </trkpt>
      <trkpt lat="46.02179" lon="4.5918">
        <ele>643</ele>
        <time>2023-11-20T11:05:15Z</time>
      </trkpt>
      <trkpt lat="46.0218" lon="4.59223">
        <ele>637</ele>
        <time>2023-11-20T11:05:30Z</time>
      </trkpt>
      <trkpt lat="46.02185" lon="4.59278">
        <ele>628</ele>
        <time>2023-11-20T11:05:49Z</time>
      </trkpt>
      <trkpt lat="46.0218" lon="4.59316">
        <ele>625</ele>
        <time>2023-11-20T11:06:03Z</time>
      </trkpt>
      <trkpt lat="46.02179" lon="4.5936">
        <ele>618</ele>
        <time>2023-11-20T11:06:18Z</time>
      </trkpt>
      <trkpt lat="46.02163" lon="4.59418">
        <ele>614</ele>
        <time>2023-11-20T11:06:40Z</time>
      </trkpt>
      <trkpt lat="46.02157" lon="4.59464">
        <ele>609</ele>
        <time>2023-11-20T11:06:56Z</time>
      </trkpt>
      <trkpt lat="46.0215" lon="4.5948">
        <ele>609</ele>
        <time>2023-11-20T11:07:03Z</time>
      </trkpt>
      <trkpt lat="46.02142" lon="4.59536">
        <ele>601</ele>
        <time>2023-11-20T11:07:22Z</time>
      </trkpt>
      <trkpt lat="46.02132" lon="4.59566">
        <ele>599</ele>
        <time>2023-11-20T11:07:34Z</time>
      </trkpt>
      <trkpt lat="46.02125" lon="4.59579">
        <ele>599</ele>
        <time>2023-11-20T11:07:40Z</time>
      </trkpt>
      <trkpt lat="46.02125" lon="4.59592">
        <ele>599</ele>
        <time>2023-11-20T11:07:44Z</time>
      </trkpt>
      <trkpt lat="46.02132" lon="4.59632">
        <ele>596</ele>
        <time>2023-11-20T11:07:59Z</time>
      </trkpt>
      <trkpt lat="46.02212" lon="4.59813">
        <ele>580</ele>
        <time>2023-11-20T11:09:13Z</time>
      </trkpt>
      <trkpt lat="46.0222" lon="4.59849">
        <ele>579</ele>
        <time>2023-11-20T11:09:26Z</time>
      </trkpt>
      <trkpt lat="46.02222" lon="4.59916">
        <ele>583</ele>
        <time>2023-11-20T11:09:50Z</time>
      </trkpt>
      <trkpt lat="46.02207" lon="4.60014">
        <ele>584</ele>
        <time>2023-11-20T11:10:24Z</time>
      </trkpt>
      <trkpt lat="46.02186" lon="4.60049">
        <ele>586</ele>
        <time>2023-11-20T11:10:41Z</time>
      </trkpt>
      <trkpt lat="46.02182" lon="4.60061">
        <ele>586</ele>
        <time>2023-11-20T11:10:45Z</time>
      </trkpt>
      <trkpt lat="46.02162" lon="4.60078">
        <ele>589</ele>
        <time>2023-11-20T11:10:57Z</time>
      </trkpt>
      <trkpt lat="46.02142" lon="4.60101">
        <ele>591</ele>
        <time>2023-11-20T11:11:10Z</time>
      </trkpt>
      <trkpt lat="46.02132" lon="4.60143">
        <ele>591</ele>
        <time>2023-11-20T11:11:25Z</time>
      </trkpt>
      <trkpt lat="46.0213" lon="4.60166">
        <ele>590</ele>
        <time>2023-11-20T11:11:33Z</time>
      </trkpt>
      <trkpt lat="46.02132" lon="4.60205">
        <ele>590</ele>
        <time>2023-11-20T11:11:47Z</time>
      </trkpt>
      <trkpt lat="46.02139" lon="4.60264">
        <ele>589</ele>
        <time>2023-11-20T11:12:07Z</time>
      </trkpt>
      <trkpt lat="46.02136" lon="4.60283">
        <ele>591</ele>
        <time>2023-11-20T11:12:14Z</time>
      </trkpt>
      <trkpt lat="46.02137" lon="4.60347">
        <ele>592</ele>
        <time>2023-11-20T11:12:36Z</time>
      </trkpt>
      <trkpt lat="46.02134" lon="4.6037">
        <ele>592</ele>
        <time>2023-11-20T11:12:45Z</time>
      </trkpt>
      <trkpt lat="46.02125" lon="4.60379">
        <ele>593</ele>
        <time>2023-11-20T11:12:50Z</time>
      </trkpt>
      <trkpt lat="46.02121" lon="4.60374">
        <ele>594</ele>
        <time>2023-11-20T11:12:53Z</time>
      </trkpt>
      <trkpt lat="46.0212" lon="4.60367">
        <ele>595</ele>
        <time>2023-11-20T11:12:55Z</time>
      </trkpt>
      <trkpt lat="46.02101" lon="4.60342">
        <ele>601</ele>
        <time>2023-11-20T11:13:08Z</time>
      </trkpt>
      <trkpt lat="46.02092" lon="4.60305">
        <ele>604</ele>
        <time>2023-11-20T11:13:22Z</time>
      </trkpt>
      <trkpt lat="46.02069" lon="4.60264">
        <ele>612</ele>
        <time>2023-11-20T11:13:40Z</time>
      </trkpt>
      <trkpt lat="46.02065" lon="4.60239">
        <ele>613</ele>
        <time>2023-11-20T11:13:49Z</time>
      </trkpt>
      <trkpt lat="46.02055" lon="4.60233">
        <ele>616</ele>
        <time>2023-11-20T11:13:54Z</time>
      </trkpt>
      <trkpt lat="46.02055" lon="4.60211">
        <ele>615</ele>
        <time>2023-11-20T11:14:02Z</time>
      </trkpt>
      <trkpt lat="46.02051" lon="4.60205">
        <ele>616</ele>
        <time>2023-11-20T11:14:05Z</time>
      </trkpt>
      <trkpt lat="46.02046" lon="4.60182">
        <ele>617</ele>
        <time>2023-11-20T11:14:13Z</time>
      </trkpt>
      <trkpt lat="46.02034" lon="4.60164">
        <ele>621</ele>
        <time>2023-11-20T11:14:22Z</time>
      </trkpt>
      <trkpt lat="46.02032" lon="4.60157">
        <ele>622</ele>
        <time>2023-11-20T11:14:25Z</time>
      </trkpt>
      <trkpt lat="46.02031" lon="4.6013">
        <ele>622</ele>
        <time>2023-11-20T11:14:34Z</time>
      </trkpt>
      <trkpt lat="46.02022" lon="4.60119">
        <ele>625</ele>
        <time>2023-11-20T11:14:40Z</time>
      </trkpt>
      <trkpt lat="46.02003" lon="4.60077">
        <ele>631</ele>
        <time>2023-11-20T11:14:57Z</time>
      </trkpt>
      <trkpt lat="46.01998" lon="4.6003">
        <ele>636</ele>
        <time>2023-11-20T11:15:14Z</time>
      </trkpt>
      <trkpt lat="46.02004" lon="4.60017">
        <ele>636</ele>
        <time>2023-11-20T11:15:19Z</time>
      </trkpt>
      <trkpt lat="46.02008" lon="4.59998">
        <ele>636</ele>
        <time>2023-11-20T11:15:26Z</time>
      </trkpt>
      <trkpt lat="46.02004" lon="4.59971">
        <ele>638</ele>
        <time>2023-11-20T11:15:36Z</time>
      </trkpt>
      <trkpt lat="46.01994" lon="4.59948">
        <ele>640</ele>
        <time>2023-11-20T11:15:45Z</time>
      </trkpt>
      <trkpt lat="46.01998" lon="4.59939">
        <ele>640</ele>
        <time>2023-11-20T11:15:49Z</time>
      </trkpt>
      <trkpt lat="46.02001" lon="4.59938">
        <ele>640</ele>
        <time>2023-11-20T11:15:50Z</time>
      </trkpt>
      <trkpt lat="46.02004" lon="4.59927">
        <ele>640</ele>
        <time>2023-11-20T11:15:55Z</time>
      </trkpt>
      <trkpt lat="46.02" lon="4.59908">
        <ele>641</ele>
        <time>2023-11-20T11:16:01Z</time>
      </trkpt>
      <trkpt lat="46.02001" lon="4.5989">
        <ele>642</ele>
        <time>2023-11-20T11:16:08Z</time>
      </trkpt>
      <trkpt lat="46.01995" lon="4.59862">
        <ele>643</ele>
        <time>2023-11-20T11:16:18Z</time>
      </trkpt>
      <trkpt lat="46.01996" lon="4.59847">
        <ele>644</ele>
        <time>2023-11-20T11:16:23Z</time>
      </trkpt>
      <trkpt lat="46.01987" lon="4.59807">
        <ele>644</ele>
        <time>2023-11-20T11:16:38Z</time>
      </trkpt>
      <trkpt lat="46.01977" lon="4.59772">
        <ele>642</ele>
        <time>2023-11-20T11:16:51Z</time>
      </trkpt>
      <trkpt lat="46.01969" lon="4.59765">
        <ele>642</ele>
        <time>2023-11-20T11:16:56Z</time>
      </trkpt>
      <trkpt lat="46.01959" lon="4.59765">
        <ele>641</ele>
        <time>2023-11-20T11:17:01Z</time>
      </trkpt>
      <trkpt lat="46.01956" lon="4.59769">
        <ele>641</ele>
        <time>2023-11-20T11:17:03Z</time>
      </trkpt>
      <trkpt lat="46.01948" lon="4.59793">
        <ele>640</ele>
        <time>2023-11-20T11:17:12Z</time>
      </trkpt>
      <trkpt lat="46.01916" lon="4.59968">
        <ele>641</ele>
        <time>2023-11-20T11:18:15Z</time>
      </trkpt>
      <trkpt lat="46.01908" lon="4.59985">
        <ele>641</ele>
        <time>2023-11-20T11:18:22Z</time>
      </trkpt>
      <trkpt lat="46.01897" lon="4.59996">
        <ele>641</ele>
        <time>2023-11-20T11:18:29Z</time>
      </trkpt>
      <trkpt lat="46.01884" lon="4.60066">
        <ele>648</ele>
        <time>2023-11-20T11:18:54Z</time>
      </trkpt>
      <trkpt lat="46.01875" lon="4.60084">
        <ele>650</ele>
        <time>2023-11-20T11:19:01Z</time>
      </trkpt>
      <trkpt lat="46.01865" lon="4.60147">
        <ele>659</ele>
        <time>2023-11-20T11:19:24Z</time>
      </trkpt>
      <trkpt lat="46.01873" lon="4.6018">
        <ele>661</ele>
        <time>2023-11-20T11:19:36Z</time>
      </trkpt>
      <trkpt lat="46.01853" lon="4.60219">
        <ele>663</ele>
        <time>2023-11-20T11:19:53Z</time>
      </trkpt>
      <trkpt lat="46.01846" lon="4.60228">
        <ele>664</ele>
        <time>2023-11-20T11:19:58Z</time>
      </trkpt>
      <trkpt lat="46.01832" lon="4.60238">
        <ele>665</ele>
        <time>2023-11-20T11:20:05Z</time>
      </trkpt>
      <trkpt lat="46.01809" lon="4.60247">
        <ele>661</ele>
        <time>2023-11-20T11:20:17Z</time>
      </trkpt>
      <trkpt lat="46.01794" lon="4.60266">
        <ele>656</ele>
        <time>2023-11-20T11:20:27Z</time>
      </trkpt>
      <trkpt lat="46.01779" lon="4.60275">
        <ele>652</ele>
        <time>2023-11-20T11:20:36Z</time>
      </trkpt>
      <trkpt lat="46.0176" lon="4.60273">
        <ele>650</ele>
        <time>2023-11-20T11:20:45Z</time>
      </trkpt>
      <trkpt lat="46.01747" lon="4.60277">
        <ele>647</ele>
        <time>2023-11-20T11:20:52Z</time>
      </trkpt>
      <trkpt lat="46.01738" lon="4.60275">
        <ele>645</ele>
        <time>2023-11-20T11:20:56Z</time>
      </trkpt>
      <trkpt lat="46.01707" lon="4.60291">
        <ele>636</ele>
        <time>2023-11-20T11:21:13Z</time>
      </trkpt>
      <trkpt lat="46.01668" lon="4.60287">
        <ele>627</ele>
        <time>2023-11-20T11:21:32Z</time>
      </trkpt>
      <trkpt lat="46.01646" lon="4.6029">
        <ele>621</ele>
        <time>2023-11-20T11:21:43Z</time>
      </trkpt>
      <trkpt lat="46.01607" lon="4.60267">
        <ele>611</ele>
        <time>2023-11-20T11:22:04Z</time>
      </trkpt>
      <trkpt lat="46.01549" lon="4.60246">
        <ele>600</ele>
        <time>2023-11-20T11:22:34Z</time>
      </trkpt>
      <trkpt lat="46.01538" lon="4.6023">
        <ele>596</ele>
        <time>2023-11-20T11:22:42Z</time>
      </trkpt>
      <trkpt lat="46.01519" lon="4.60219">
        <ele>592</ele>
        <time>2023-11-20T11:22:52Z</time>
      </trkpt>
      <trkpt lat="46.01508" lon="4.60205">
        <ele>590</ele>
        <time>2023-11-20T11:23:00Z</time>
      </trkpt>
      <trkpt lat="46.01485" lon="4.60145">
        <ele>582</ele>
        <time>2023-11-20T11:23:24Z</time>
      </trkpt>
      <trkpt lat="46.01474" lon="4.60131">
        <ele>579</ele>
        <time>2023-11-20T11:23:31Z</time>
      </trkpt>
      <trkpt lat="46.01468" lon="4.60129">
        <ele>578</ele>
        <time>2023-11-20T11:23:34Z</time>
      </trkpt>
      <trkpt lat="46.0145" lon="4.60139">
        <ele>577</ele>
        <time>2023-11-20T11:23:44Z</time>
      </trkpt>
      <trkpt lat="46.01439" lon="4.60164">
        <ele>578</ele>
        <time>2023-11-20T11:23:54Z</time>
      </trkpt>
      <trkpt lat="46.01435" lon="4.60206">
        <ele>575</ele>
        <time>2023-11-20T11:24:09Z</time>
      </trkpt>
      <trkpt lat="46.01439" lon="4.60251">
        <ele>574</ele>
        <time>2023-11-20T11:24:24Z</time>
      </trkpt>
      <trkpt lat="46.01444" lon="4.60263">
        <ele>572</ele>
        <time>2023-11-20T11:24:29Z</time>
      </trkpt>
      <trkpt lat="46.01486" lon="4.60311">
        <ele>574</ele>
        <time>2023-11-20T11:24:56Z</time>
      </trkpt>
      <trkpt lat="46.01514" lon="4.60364">
        <ele>569</ele>
        <time>2023-11-20T11:25:19Z</time>
      </trkpt>
      <trkpt lat="46.01525" lon="4.60401">
        <ele>563</ele>
        <time>2023-11-20T11:25:33Z</time>
      </trkpt>
      <trkpt lat="46.01528" lon="4.60469">
        <ele>551</ele>
        <time>2023-11-20T11:25:57Z</time>
      </trkpt>
      <trkpt lat="46.01533" lon="4.60498">
        <ele>547</ele>
        <time>2023-11-20T11:26:07Z</time>
      </trkpt>
      <trkpt lat="46.01535" lon="4.60541">
        <ele>543</ele>
        <time>2023-11-20T11:26:22Z</time>
      </trkpt>
      <trkpt lat="46.01531" lon="4.60575">
        <ele>538</ele>
        <time>2023-11-20T11:26:34Z</time>
      </trkpt>
      <trkpt lat="46.01526" lon="4.60593">
        <ele>535</ele>
        <time>2023-11-20T11:26:41Z</time>
      </trkpt>
      <trkpt lat="46.01497" lon="4.60654">
        <ele>529</ele>
        <time>2023-11-20T11:27:07Z</time>
      </trkpt>
      <trkpt lat="46.01497" lon="4.60673">
        <ele>529</ele>
        <time>2023-11-20T11:27:13Z</time>
      </trkpt>
      <trkpt lat="46.01501" lon="4.60688">
        <ele>528</ele>
        <time>2023-11-20T11:27:19Z</time>
      </trkpt>
      <trkpt lat="46.01516" lon="4.60712">
        <ele>529</ele>
        <time>2023-11-20T11:27:30Z</time>
      </trkpt>
      <trkpt lat="46.01548" lon="4.60736">
        <ele>532</ele>
        <time>2023-11-20T11:27:48Z</time>
      </trkpt>
      <trkpt lat="46.01628" lon="4.60814">
        <ele>530</ele>
        <time>2023-11-20T11:28:37Z</time>
      </trkpt>
      <trkpt lat="46.01702" lon="4.60869">
        <ele>524</ele>
        <time>2023-11-20T11:29:18Z</time>
      </trkpt>
      <trkpt lat="46.0174" lon="4.60903">
        <ele>520</ele>
        <time>2023-11-20T11:29:41Z</time>
      </trkpt>
      <trkpt lat="46.01747" lon="4.60907">
        <ele>520</ele>
        <time>2023-11-20T11:29:44Z</time>
      </trkpt>
      <trkpt lat="46.01768" lon="4.60908">
        <ele>519</ele>
        <time>2023-11-20T11:29:55Z</time>
      </trkpt>
      <trkpt lat="46.01774" lon="4.60914">
        <ele>519</ele>
        <time>2023-11-20T11:29:59Z</time>
      </trkpt>
      <trkpt lat="46.01789" lon="4.60966">
        <ele>518</ele>
        <time>2023-11-20T11:30:18Z</time>
      </trkpt>
      <trkpt lat="46.01827" lon="4.61014">
        <ele>518</ele>
        <time>2023-11-20T11:30:43Z</time>
      </trkpt>
      <trkpt lat="46.01834" lon="4.61047">
        <ele>516</ele>
        <time>2023-11-20T11:30:55Z</time>
      </trkpt>
      <trkpt lat="46.01833" lon="4.61064">
        <ele>515</ele>
        <time>2023-11-20T11:31:01Z</time>
      </trkpt>
      <trkpt lat="46.01817" lon="4.61109">
        <ele>512</ele>
        <time>2023-11-20T11:31:19Z</time>
      </trkpt>
      <trkpt lat="46.01812" lon="4.61131">
        <ele>510</ele>
        <time>2023-11-20T11:31:27Z</time>
      </trkpt>
      <trkpt lat="46.01811" lon="4.6124">
        <ele>499</ele>
        <time>2023-11-20T11:32:05Z</time>
      </trkpt>
      <trkpt lat="46.01817" lon="4.61346">
        <ele>484</ele>
        <time>2023-11-20T11:32:42Z</time>
      </trkpt>
      <trkpt lat="46.0183" lon="4.61369">
        <ele>481</ele>
        <time>2023-11-20T11:32:52Z</time>
      </trkpt>
      <trkpt lat="46.01855" lon="4.6139">
        <ele>477</ele>
        <time>2023-11-20T11:33:07Z</time>
      </trkpt>
      <trkpt lat="46.01885" lon="4.61421">
        <ele>471</ele>
        <time>2023-11-20T11:33:25Z</time>
      </trkpt>
      <trkpt lat="46.01944" lon="4.61501">
        <ele>456</ele>
        <time>2023-11-20T11:34:06Z</time>
      </trkpt>
      <trkpt lat="46.01958" lon="4.61515">
        <ele>454</ele>
        <time>2023-11-20T11:34:14Z</time>
      </trkpt>
      <trkpt lat="46.01982" lon="4.61551">
        <ele>450</ele>
        <time>2023-11-20T11:34:32Z</time>
      </trkpt>
      <trkpt lat="46.01989" lon="4.61559">
        <ele>450</ele>
        <time>2023-11-20T11:34:36Z</time>
      </trkpt>
      <trkpt lat="46.02026" lon="4.61585">
        <ele>447</ele>
        <time>2023-11-20T11:34:57Z</time>
      </trkpt>
      <trkpt lat="46.01972" lon="4.61717">
        <ele>425</ele>
        <time>2023-11-20T11:35:50Z</time>
      </trkpt>
      <trkpt lat="46.01974" lon="4.6173">
        <ele>423</ele>
        <time>2023-11-20T11:35:54Z</time>
      </trkpt>
      <trkpt lat="46.0198" lon="4.61741">
        <ele>422</ele>
        <time>2023-11-20T11:35:59Z</time>
      </trkpt>
      <trkpt lat="46.02" lon="4.61759">
        <ele>421</ele>
        <time>2023-11-20T11:36:11Z</time>
      </trkpt>
      <trkpt lat="46.02036" lon="4.61783">
        <ele>418</ele>
        <time>2023-11-20T11:36:31Z</time>
      </trkpt>
      <trkpt lat="46.0205" lon="4.61773">
        <ele>421</ele>
        <time>2023-11-20T11:36:39Z</time>
      </trkpt>
      <trkpt lat="46.02051" lon="4.61779">
        <ele>420</ele>
        <time>2023-11-20T11:36:41Z</time>
      </trkpt>
      <trkpt lat="46.02102" lon="4.61809">
        <ele>416</ele>
        <time>2023-11-20T11:37:08Z</time>
      </trkpt>
      <trkpt lat="46.02136" lon="4.61812">
        <ele>414</ele>
        <time>2023-11-20T11:37:26Z</time>
      </trkpt>
      <trkpt lat="46.02153" lon="4.61857">
        <ele>407</ele>
        <time>2023-11-20T11:37:43Z</time>
      </trkpt>
      <trkpt lat="46.02171" lon="4.61918">
        <ele>399</ele>
        <time>2023-11-20T11:38:06Z</time>
      </trkpt>
      <trkpt lat="46.02172" lon="4.61928">
        <ele>398</ele>
        <time>2023-11-20T11:38:10Z</time>
      </trkpt>
      <trkpt lat="46.02168" lon="4.61933">
        <ele>397</ele>
        <time>2023-11-20T11:38:13Z</time>
      </trkpt>
      <trkpt lat="46.02151" lon="4.61937">
        <ele>396</ele>
        <time>2023-11-20T11:38:21Z</time>
      </trkpt>
      <trkpt lat="46.02112" lon="4.61928">
        <ele>395</ele>
        <time>2023-11-20T11:38:41Z</time>
      </trkpt>
      <trkpt lat="46.0208" lon="4.61914">
        <ele>396</ele>
        <time>2023-11-20T11:38:58Z</time>
      </trkpt>
      <trkpt lat="46.02042" lon="4.61892">
        <ele>399</ele>
        <time>2023-11-20T11:39:18Z</time>
      </trkpt>
      <trkpt lat="46.02043" lon="4.61897">
        <ele>398</ele>
        <time>2023-11-20T11:39:20Z</time>
      </trkpt>
      <trkpt lat="46.02061" lon="4.61914">
        <ele>396</ele>
        <time>2023-11-20T11:39:31Z</time>
      </trkpt>
      <trkpt lat="46.02124" lon="4.61967">
        <ele>389</ele>
        <time>2023-11-20T11:40:07Z</time>
      </trkpt>
      <trkpt lat="46.02128" lon="4.61973">
        <ele>388</ele>
        <time>2023-11-20T11:40:10Z</time>
      </trkpt>
      <trkpt lat="46.02078" lon="4.61955">
        <ele>388</ele>
        <time>2023-11-20T11:40:36Z</time>
      </trkpt>
      <trkpt lat="46.02064" lon="4.61955">
        <ele>389</ele>
        <time>2023-11-20T11:40:43Z</time>
      </trkpt>
      <trkpt lat="46.02054" lon="4.61958">
        <ele>389</ele>
        <time>2023-11-20T11:40:48Z</time>
      </trkpt>
      <trkpt lat="46.02044" lon="4.61966">
        <ele>389</ele>
        <time>2023-11-20T11:40:54Z</time>
      </trkpt>
      <trkpt lat="46.02041" lon="4.62013">
        <ele>384</ele>
        <time>2023-11-20T11:41:10Z</time>
      </trkpt>
      <trkpt lat="46.02046" lon="4.62034">
        <ele>382</ele>
        <time>2023-11-20T11:41:18Z</time>
      </trkpt>
      <trkpt lat="46.02048" lon="4.62071">
        <ele>379</ele>
        <time>2023-11-20T11:41:31Z</time>
      </trkpt>
      <trkpt lat="46.02039" lon="4.62158">
        <ele>378</ele>
        <time>2023-11-20T11:42:01Z</time>
      </trkpt>
      <trkpt lat="46.02026" lon="4.62198">
        <ele>378</ele>
        <time>2023-11-20T11:42:17Z</time>
      </trkpt>
      <trkpt lat="46.02003" lon="4.62238">
        <ele>379</ele>
        <time>2023-11-20T11:42:35Z</time>
      </trkpt>
      <trkpt lat="46.02002" lon="4.62247">
        <ele>379</ele>
        <time>2023-11-20T11:42:38Z</time>
      </trkpt>
      <trkpt lat="46.02069" lon="4.62356">
        <ele>361</ele>
        <time>2023-11-20T11:43:28Z</time>
      </trkpt>
      <trkpt lat="46.02107" lon="4.62408">
        <ele>352</ele>
        <time>2023-11-20T11:43:55Z</time>
      </trkpt>
      <trkpt lat="46.02114" lon="4.62432">
        <ele>350</ele>
        <time>2023-11-20T11:44:04Z</time>
      </trkpt>
      <trkpt lat="46.02087" lon="4.62552">
        <ele>346</ele>
        <time>2023-11-20T11:44:48Z</time>
      </trkpt>
      <trkpt lat="46.02073" lon="4.6266">
        <ele>341</ele>
        <time>2023-11-20T11:45:26Z</time>
      </trkpt>
      <trkpt lat="46.02051" lon="4.62741">
        <ele>332</ele>
        <time>2023-11-20T11:45:56Z</time>
      </trkpt>
      <trkpt lat="46.02052" lon="4.62751">
        <ele>331</ele>
        <time>2023-11-20T11:46:00Z</time>
      </trkpt>
      <trkpt lat="46.02059" lon="4.62757">
        <ele>330</ele>
        <time>2023-11-20T11:46:04Z</time>
      </trkpt>
      <trkpt lat="46.02077" lon="4.62752">
        <ele>329</ele>
        <time>2023-11-20T11:46:13Z</time>
      </trkpt>
      <trkpt lat="46.02097" lon="4.62752">
        <ele>329</ele>
        <time>2023-11-20T11:46:23Z</time>
      </trkpt>
      <trkpt lat="46.02154" lon="4.62791">
        <ele>328</ele>
        <time>2023-11-20T11:46:54Z</time>
      </trkpt>
      <trkpt lat="46.02283" lon="4.62854">
        <ele>320</ele>
        <time>2023-11-20T11:48:03Z</time>
      </trkpt>
      <trkpt lat="46.02291" lon="4.62862">
        <ele>319</ele>
        <time>2023-11-20T11:48:07Z</time>
      </trkpt>
      <trkpt lat="46.02293" lon="4.62892">
        <ele>317</ele>
        <time>2023-11-20T11:48:18Z</time>
      </trkpt>
      <trkpt lat="46.02299" lon="4.62924">
        <ele>315</ele>
        <time>2023-11-20T11:48:29Z</time>
      </trkpt>
      <trkpt lat="46.02308" lon="4.62942">
        <ele>315</ele>
        <time>2023-11-20T11:48:37Z</time>
      </trkpt>
      <trkpt lat="46.02321" lon="4.62955">
        <ele>314</ele>
        <time>2023-11-20T11:48:45Z</time>
      </trkpt>
      <trkpt lat="46.02336" lon="4.62954">
        <ele>313</ele>
        <time>2023-11-20T11:48:53Z</time>
      </trkpt>
      <trkpt lat="46.02344" lon="4.62947">
        <ele>312</ele>
        <time>2023-11-20T11:48:57Z</time>
      </trkpt>
      <trkpt lat="46.02367" lon="4.62899">
        <ele>312</ele>
        <time>2023-11-20T11:49:17Z</time>
      </trkpt>
      <trkpt lat="46.02379" lon="4.62864">
        <ele>311</ele>
        <time>2023-11-20T11:49:31Z</time>
      </trkpt>
      <trkpt lat="46.02391" lon="4.62792">
        <ele>313</ele>
        <time>2023-11-20T11:49:57Z</time>
      </trkpt>
      <trkpt lat="46.02398" lon="4.62776">
        <ele>313</ele>
        <time>2023-11-20T11:50:03Z</time>
      </trkpt>
      <trkpt lat="46.02408" lon="4.62769">
        <ele>311</ele>
        <time>2023-11-20T11:50:09Z</time>
      </trkpt>
      <trkpt lat="46.02442" lon="4.62782">
        <ele>314</ele>
        <time>2023-11-20T11:50:27Z</time>
      </trkpt>
      <trkpt lat="46.02448" lon="4.62798">
        <ele>315</ele>
        <time>2023-11-20T11:50:33Z</time>
      </trkpt>
      <trkpt lat="46.0245" lon="4.62823">
        <ele>315</ele>
        <time>2023-11-20T11:50:42Z</time>
      </trkpt>
      <trkpt lat="46.02458" lon="4.62852">
        <ele>317</ele>
        <time>2023-11-20T11:50:52Z</time>
      </trkpt>
      <trkpt lat="46.0247" lon="4.62881">
        <ele>320</ele>
        <time>2023-11-20T11:51:04Z</time>
      </trkpt>
      <trkpt lat="46.0248" lon="4.62927">
        <ele>322</ele>
        <time>2023-11-20T11:51:21Z</time>
      </trkpt>
      <trkpt lat="46.0248" lon="4.62963">
        <ele>322</ele>
        <time>2023-11-20T11:51:33Z</time>
      </trkpt>
      <trkpt lat="46.02488" lon="4.6299">
        <ele>325</ele>
        <time>2023-11-20T11:51:44Z</time>
      </trkpt>
      <trkpt lat="46.02494" lon="4.63099">
        <ele>328</ele>
        <time>2023-11-20T11:52:22Z</time>
      </trkpt>
      <trkpt lat="46.02497" lon="4.63115">
        <ele>329</ele>
        <time>2023-11-20T11:52:27Z</time>
      </trkpt>
      <trkpt lat="46.02504" lon="4.63133">
        <ele>332</ele>
        <time>2023-11-20T11:52:35Z</time>
      </trkpt>
      <trkpt lat="46.025" lon="4.63151">
        <ele>331</ele>
        <time>2023-11-20T11:52:41Z</time>
      </trkpt>
      <trkpt lat="46.02489" lon="4.63176">
        <ele>328</ele>
        <time>2023-11-20T11:52:51Z</time>
      </trkpt>
      <trkpt lat="46.02484" lon="4.63199">
        <ele>326</ele>
        <time>2023-11-20T11:53:00Z</time>
      </trkpt>
      <trkpt lat="46.02479" lon="4.63273">
        <ele>325</ele>
        <time>2023-11-20T11:53:26Z</time>
      </trkpt>
      <trkpt lat="46.02469" lon="4.63296">
        <ele>323</ele>
        <time>2023-11-20T11:53:35Z</time>
      </trkpt>
      <trkpt lat="46.02464" lon="4.63327">
        <ele>322</ele>
        <time>2023-11-20T11:53:46Z</time>
      </trkpt>
      <trkpt lat="46.02446" lon="4.63384">
        <ele>320</ele>
        <time>2023-11-20T11:54:08Z</time>
      </trkpt>
      <trkpt lat="46.02471" lon="4.63449">
        <ele>330</ele>
        <time>2023-11-20T11:54:34Z</time>
      </trkpt>
      <trkpt lat="46.02438" lon="4.63622">
        <ele>316</ele>
        <time>2023-11-20T11:55:36Z</time>
      </trkpt>
      <trkpt lat="46.02416" lon="4.63763">
        <ele>307</ele>
        <time>2023-11-20T11:56:26Z</time>
      </trkpt>
      <trkpt lat="46.02412" lon="4.63806">
        <ele>303</ele>
        <time>2023-11-20T11:56:41Z</time>
      </trkpt>
      <trkpt lat="46.02414" lon="4.63836">
        <ele>302</ele>
        <time>2023-11-20T11:56:52Z</time>
      </trkpt>
      <trkpt lat="46.02404" lon="4.63884">
        <ele>293</ele>
        <time>2023-11-20T11:57:09Z</time>
      </trkpt>
      <trkpt lat="46.02409" lon="4.63931">
        <ele>288</ele>
        <time>2023-11-20T11:57:26Z</time>
      </trkpt>
      <trkpt lat="46.02405" lon="4.63951">
        <ele>285</ele>
        <time>2023-11-20T11:57:33Z</time>
      </trkpt>
      <trkpt lat="46.02407" lon="4.63977">
        <ele>283</ele>
        <time>2023-11-20T11:57:42Z</time>
      </trkpt>
      <trkpt lat="46.02423" lon="4.64075">
        <ele>275</ele>
        <time>2023-11-20T11:58:17Z</time>
      </trkpt>
      <trkpt lat="46.02416" lon="4.64129">
        <ele>271</ele>
        <time>2023-11-20T11:58:36Z</time>
      </trkpt>
      <trkpt lat="46.02406" lon="4.64171">
        <ele>268</ele>
        <time>2023-11-20T11:58:51Z</time>
      </trkpt>
      <trkpt lat="46.024" lon="4.64171">
        <ele>267</ele>
        <time>2023-11-20T11:58:55Z</time>
      </trkpt>
      <trkpt lat="46.02386" lon="4.64161">
        <ele>268</ele>
        <time>2023-11-20T11:59:02Z</time>
      </trkpt>
      <trkpt lat="46.02363" lon="4.6415">
        <ele>267</ele>
        <time>2023-11-20T11:59:14Z</time>
      </trkpt>
      <trkpt lat="46.02346" lon="4.64148">
        <ele>267</ele>
        <time>2023-11-20T11:59:23Z</time>
      </trkpt>
      <trkpt lat="46.02312" lon="4.64157">
        <ele>268</ele>
        <time>2023-11-20T11:59:40Z</time>
      </trkpt>
      <trkpt lat="46.02307" lon="4.64162">
        <ele>268</ele>
        <time>2023-11-20T11:59:43Z</time>
      </trkpt>
      <trkpt lat="46.02296" lon="4.64178">
        <ele>269</ele>
        <time>2023-11-20T11:59:51Z</time>
      </trkpt>
      <trkpt lat="46.02282" lon="4.6422">
        <ele>271</ele>
        <time>2023-11-20T12:00:07Z</time>
      </trkpt>
      <trkpt lat="46.02269" lon="4.64241">
        <ele>273</ele>
        <time>2023-11-20T12:00:17Z</time>
      </trkpt>
      <trkpt lat="46.0226" lon="4.64252">
        <ele>274</ele>
        <time>2023-11-20T12:00:23Z</time>
      </trkpt>
      <trkpt lat="46.02234" lon="4.64272">
        <ele>278</ele>
        <time>2023-11-20T12:00:38Z</time>
      </trkpt>
      <trkpt lat="46.0223" lon="4.64282">
        <ele>279</ele>
        <time>2023-11-20T12:00:42Z</time>
      </trkpt>
      <trkpt lat="46.02242" lon="4.6431">
        <ele>278</ele>
        <time>2023-11-20T12:00:53Z</time>
      </trkpt>
      <trkpt lat="46.02248" lon="4.64336">
        <ele>278</ele>
        <time>2023-11-20T12:01:03Z</time>
      </trkpt>
      <trkpt lat="46.0225" lon="4.6436">
        <ele>278</ele>
        <time>2023-11-20T12:01:11Z</time>
      </trkpt>
      <trkpt lat="46.02243" lon="4.64398">
        <ele>280</ele>
        <time>2023-11-20T12:01:25Z</time>
      </trkpt>
      <trkpt lat="46.02211" lon="4.64417">
        <ele>286</ele>
        <time>2023-11-20T12:01:42Z</time>
      </trkpt>
      <trkpt lat="46.02138" lon="4.64442">
        <ele>298</ele>
        <time>2023-11-20T12:02:20Z</time>
      </trkpt>
      <trkpt lat="46.02134" lon="4.64446">
        <ele>299</ele>
        <time>2023-11-20T12:02:22Z</time>
      </trkpt>
      <trkpt lat="46.02152" lon="4.64542">
        <ele>299</ele>
        <time>2023-11-20T12:02:57Z</time>
      </trkpt>
      <trkpt lat="46.02167" lon="4.64726">
        <ele>295</ele>
        <time>2023-11-20T12:04:01Z</time>
      </trkpt>
      <trkpt lat="46.02194" lon="4.64849">
        <ele>294</ele>
        <time>2023-11-20T12:04:46Z</time>
      </trkpt>
      <trkpt lat="46.02208" lon="4.6489">
        <ele>293</ele>
        <time>2023-11-20T12:05:02Z</time>
      </trkpt>
      <trkpt lat="46.02245" lon="4.64959">
        <ele>290</ele>
        <time>2023-11-20T12:05:32Z</time>
      </trkpt>
      <trkpt lat="46.0228" lon="4.64951">
        <ele>286</ele>
        <time>2023-11-20T12:05:50Z</time>
      </trkpt>
      <trkpt lat="46.02288" lon="4.64952">
        <ele>284</ele>
        <time>2023-11-20T12:05:54Z</time>
      </trkpt>
      <trkpt lat="46.02302" lon="4.64957">
        <ele>282</ele>
        <time>2023-11-20T12:06:01Z</time>
      </trkpt>
      <trkpt lat="46.02313" lon="4.64966">
        <ele>281</ele>
        <time>2023-11-20T12:06:07Z</time>
      </trkpt>
      <trkpt lat="46.02319" lon="4.64975">
        <ele>280</ele>
        <time>2023-11-20T12:06:12Z</time>
      </trkpt>
      <trkpt lat="46.02325" lon="4.6499">
        <ele>280</ele>
        <time>2023-11-20T12:06:18Z</time>
      </trkpt>
      <trkpt lat="46.02324" lon="4.65077">
        <ele>284</ele>
        <time>2023-11-20T12:06:48Z</time>
      </trkpt>
      <trkpt lat="46.02332" lon="4.65146">
        <ele>282</ele>
        <time>2023-11-20T12:07:12Z</time>
      </trkpt>
      <trkpt lat="46.02338" lon="4.65152">
        <ele>281</ele>
        <time>2023-11-20T12:07:16Z</time>
      </trkpt>
      <trkpt lat="46.02359" lon="4.65154">
        <ele>277</ele>
        <time>2023-11-20T12:07:26Z</time>
      </trkpt>
      <trkpt lat="46.02366" lon="4.65158">
        <ele>276</ele>
        <time>2023-11-20T12:07:30Z</time>
      </trkpt>
      <trkpt lat="46.0239" lon="4.65197">
        <ele>273</ele>
        <time>2023-11-20T12:07:48Z</time>
      </trkpt>
      <trkpt lat="46.02412" lon="4.65247">
        <ele>272</ele>
        <time>2023-11-20T12:08:09Z</time>
      </trkpt>
      <trkpt lat="46.02446" lon="4.65386">
        <ele>266</ele>
        <time>2023-11-20T12:09:00Z</time>
      </trkpt>
      <trkpt lat="46.02456" lon="4.6539">
        <ele>263</ele>
        <time>2023-11-20T12:09:05Z</time>
      </trkpt>
      <trkpt lat="46.02499" lon="4.65387">
        <ele>254</ele>
        <time>2023-11-20T12:09:27Z</time>
      </trkpt>
      <trkpt lat="46.02516" lon="4.65402">
        <ele>252</ele>
        <time>2023-11-20T12:09:37Z</time>
      </trkpt>
      <trkpt lat="46.02514" lon="4.65383">
        <ele>252</ele>
        <time>2023-11-20T12:09:43Z</time>
      </trkpt>
      <trkpt lat="46.02494" lon="4.65338">
        <ele>254</ele>
        <time>2023-11-20T12:10:02Z</time>
      </trkpt>
      <trkpt lat="46.02493" lon="4.65307">
        <ele>254</ele>
        <time>2023-11-20T12:10:13Z</time>
      </trkpt>
      <trkpt lat="46.02495" lon="4.65281">
        <ele>253</ele>
        <time>2023-11-20T12:10:22Z</time>
      </trkpt>
      <trkpt lat="46.02489" lon="4.65263">
        <ele>254</ele>
        <time>2023-11-20T12:10:29Z</time>
      </trkpt>
      <trkpt lat="46.02489" lon="4.65247">
        <ele>254</ele>
        <time>2023-11-20T12:10:34Z</time>
      </trkpt>
    </trkseg>
  </trk>
</gpx>